Corona, CA (92877)

8:02 PM PDT on October 25, 2014 (GMT -0700)
South Corona (Rimpau/Chase) | Change Station
CLOSE
Current Station
Personal Weather Station
Location: Corona, CA
Elevation: 1040 ft
Nearby Weather Stations

Elev 1040 ft 33.84 °N, 117.55 °W | Updated 7 seconds ago

Overcast
Overcast
70.3 °F
Feels Like 75 °F
N
2.2
Wind Variable Wind from East
Gusts 3.1 mph

Today
High -- | Low -- °F
--% Chance of Precip.
Yesterday
High -- | Low -- °F
Precip. -- in
7:03 AM 6:04 PM
Waxing Crescent, 5% visible
Pressure 29.99 in
Visibility 10.0 miles
Clouds Overcast 100 ft
Heat Index 75 °F
Dew Point 57 °F
Humidity 63%
Rainfall 0.00 in
Snow Depth Not available.
UV 0 out of 12
Pollen 3.80 out of 12
Ozone Good
PM2.5 Good
Flu Activity Sporadic
METAR KAJO 260256Z AUTO 26008KT 10SM OVC001 21/13 A3000 RMK AO2 53004 T02110133 SLP153 $

More Conditions Fewer Conditions

Pressure 29.99 in
Visibility 10.0 miles
Clouds Overcast 100 ft
Heat Index 75 °F
Dew Point 57 °F
Humidity 63%
Rainfall 0.00 in
Snow Depth Not available.
UV 0 out of 12
Pollen 3.80 out of 12
Ozone Good
PM2.5 Good
Flu Activity Sporadic
METAR KAJO 260256Z AUTO 26008KT 10SM OVC001 21/13 A3000 RMK AO2 53004 T02110133 SLP153 $

More Conditions Fewer Conditions

10-Day Weather Forecast

Almanac

Astronomy

Oct. 25, 2014 Rise Set
Actual Time 7:03 AM PDT 6:04 PM PDT
Civil Twilight 6:38 AM PDT 6:30 PM PDT
Nautical Twilight 6:08 AM PDT 6:59 PM PDT
Astronomical Twilight 5:39 AM PDT 7:28 PM PDT
Moon 8:43 AM PDT (10/25) 7:35 PM PDT (10/25)
Length of Visible Light 11h 52m
Length of Day
11h 01m
Tomorrow will be 1m 55s shorter.
Waxing Crescent, 5% of the Moon is Illuminated
Today
Waxing Crescent
Oct 30
First Quarter
Nov 6
Full
Nov 14
Last Quarter
Nov 22
New

Today's Extremes

State Highs State Lows

Community

WunderPhotos

Upload Photos

1,765,091 photos uploaded!

Nearby

Air Quality

  Air Quality AQ Index Pollutant
Yesterday Moderate
PM10
Yesterday Good
OZONE
Current Good
PM2.5
Current Good
OZONE
Sunday Good
PM10
Sunday Moderate
OZONE
Sunday Good
CO
Sunday Good
NO2

Snow Depth

Station Depth Elevation
Virginia Lakes Ridge 0 in 9200 ft
Leavitt Lake 0 in 9400 ft
Sonora Pass 0 in 8800 ft
Poison Flat 0 in 7900 ft
Ebbetts Pass 0 in 8700 ft

Earthquake Activity

City Distance Mag. Time & Date
Barstow, California 86 miles 2.9 2:48 PM PDT
2014-10-25
Running Springs, California 41 miles 3.1 4:07 AM PDT
2014-10-25
Brea, California 19 miles 2.9 3:35 PM PDT
2014-10-23
Brea, California 19 miles 2.8 3:34 PM PDT
2014-10-23
Minimum magnitude displayed is 2.5.

Coastal Water Temperatures

Place Temperature
Santa Monica Pier 70.0 °F
Los Angeles, CA 69.1 °F
La Jolla, CA 72.0 °F

Nearby Weather Stations